Time;durP1;ratioP1;P1;durP2;ratioP2;P2;SDS_P1;SDS_P2;PMS_P1;PMS_P2;Temp;Humidity;BMP_temperature;BMP_pressure;BME280_temperature;BME280_humidity;BME280_pressure;Samples;Min_cycle;Max_cycle;Signal;HPM_P1;HPM_P2
2023/04/25 00:00:45;;;;;;;;;;;;;;;4.95;94.82;100990.09;5021604;28;1963;-79
2023/04/25 00:03:10;;;;;;;;;;;;;;;4.95;94.56;101000.38;5028264;28;1220;-79
2023/04/25 00:05:36;;;;;;;;;;;;;;;4.94;94.72;100998.72;5035128;28;1177;-78
2023/04/25 00:08:02;;;;;;;;;;;;;;;4.92;94.80;100997.97;5024457;28;1423;-79
2023/04/25 00:10:27;;;;;;;;;;;;;;;4.92;94.81;101000.53;5044716;28;1233;-78
2023/04/25 00:12:53;;;;;;;;;;;;;;;4.89;94.54;100996.41;5024278;28;1354;-79
2023/04/25 00:15:18;;;;;;;;;;;;;;;4.89;94.63;101000.72;5040545;28;1209;-80
2023/04/25 00:17:45;;;;;;;;;;;;;;;4.85;94.79;101004.34;5025952;28;1441;-79
2023/04/25 00:20:10;;;;;;;;;;;;;;;4.80;94.78;101008.00;5016347;28;1914;-79
2023/04/25 00:22:37;;;;;;;;;;;;;;;4.77;95.00;101008.19;5042757;28;1518;-79
2023/04/25 00:25:03;;;;;;;;;;;;;;;4.73;95.00;101011.81;5043756;28;1235;-79
2023/04/25 00:27:28;;;;;;;;;;;;;;;4.72;94.81;101014.47;5018095;28;1331;-79
2023/04/25 00:29:53;;;;;;;;;;;;;;;4.71;94.86;101018.78;5040596;28;1138;-79
2023/04/25 00:32:19;;;;;;;;;;;;;;;4.70;94.94;101017.13;5021806;28;1272;-79
2023/04/25 00:34:44;;;;;;;;;;;;;;;4.69;95.17;101025.72;5040928;28;1036;-79
2023/04/25 00:37:10;;;;;;;;;;;;;;;4.65;95.14;101024.25;5038473;28;1050;-79
2023/04/25 00:39:35;;;;;;;;;;;;;;;4.65;95.27;101024.25;5014740;28;1236;-79
2023/04/25 00:42:01;;;;;;;;;;;;;;;4.61;95.31;101030.47;5046253;28;1961;-78
2023/04/25 00:44:27;;;;;;;;;;;;;;;4.63;95.21;101027.81;5045243;28;1156;-79
2023/04/25 00:46:53;;;;;;;;;;;;;;;4.61;95.24;101025.31;5036237;28;1193;-78
2023/04/25 00:49:18;;;;;;;;;;;;;;;4.65;95.66;101024.25;5017342;28;1173;-79
2023/04/25 00:51:44;;;;;;;;;;;;;;;4.66;95.32;101025.09;5032567;28;1577;-80
2023/04/25 00:54:10;;;;;;;;;;;;;;;4.67;95.33;101022.44;5024217;28;1436;-80
2023/04/25 00:56:35;;;;;;;;;;;;;;;4.64;95.59;101027.72;5025247;28;1423;-79
2023/04/25 00:59:01;;;;;;;;;;;;;;;4.57;95.36;101028.97;5016086;28;2003;-79
2023/04/25 01:01:26;;;;;;;;;;;;;;;4.56;95.40;101024.75;5034217;28;1961;-79
2023/04/25 01:03:53;;;;;;;;;;;;;;;4.52;95.46;101026.63;5032561;28;1085;-78
2023/04/25 01:06:18;;;;;;;;;;;;;;;4.47;95.42;101031.22;5026024;28;1234;-79
2023/04/25 01:08:43;;;;;;;;;;;;;;;4.41;95.72;101028.09;5033604;28;1207;-79
2023/04/25 01:11:09;;;;;;;;;;;;;;;4.39;95.95;101035.06;5017462;28;1303;-79
2023/04/25 01:13:34;;;;;;;;;;;;;;;4.34;95.87;101029.34;5018605;28;1451;-79
2023/04/25 01:16:00;;;;;;;;;;;;;;;4.34;95.73;101035.31;5021097;28;1629;-79
2023/04/25 01:18:25;;;;;;;;;;;;;;;4.33;95.64;101023.38;5041552;28;1186;-79
2023/04/25 01:20:51;;;;;;;;;;;;;;;4.35;95.83;101033.56;5024042;28;1894;-78
2023/04/25 01:23:16;;;;;;;;;;;;;;;4.37;95.74;101031.78;5040875;28;1590;-78
2023/04/25 01:25:41;;;;;;;;;;;;;;;4.38;95.79;101041.13;5036705;28;1592;-79
2023/04/25 01:28:07;;;;;;;;;;;;;;;4.40;96.36;101029.03;5034822;28;1478;-78
2023/04/25 01:30:32;;;;;;;;;;;;;;;4.41;95.78;101030.69;5038877;28;1154;-79
2023/04/25 01:32:58;;;;;;;;;;;;;;;4.39;95.79;101024.81;5040229;28;1253;-78
2023/04/25 01:35:24;;;;;;;;;;;;;;;4.38;95.96;101036.81;5025172;28;1483;-79
2023/04/25 01:37:50;;;;;;;;;;;;;;;4.39;95.94;101042.78;5036521;28;1131;-78
2023/04/25 01:40:17;;;;;;;;;;;;;;;4.38;95.72;101041.13;5024755;28;1902;-78
2023/04/25 01:42:43;;;;;;;;;;;;;;;4.37;95.91;101036.91;5040129;28;1239;-79
2023/04/25 01:45:10;;;;;;;;;;;;;;;4.36;95.90;101042.94;5025678;28;1208;-79
2023/04/25 01:47:35;;;;;;;;;;;;;;;4.32;95.64;101037.13;5030037;28;1073;-78
2023/04/25 01:50:04;;;;;;;;;;;;;;;4.31;95.86;101044.94;5035573;28;995;-78
2023/04/25 01:52:29;;;;;;;;;;;;;;;4.31;95.70;101050.06;5038715;28;1081;-78
2023/04/25 01:54:56;;;;;;;;;;;;;;;4.31;95.92;101052.63;5034600;28;1136;-78
2023/04/25 01:57:21;;;;;;;;;;;;;;;4.29;95.81;101051.88;5035537;28;1073;-79
2023/04/25 01:59:47;;;;;;;;;;;;;;;4.26;96.00;101043.41;5028674;28;1026;-79
2023/04/25 02:02:12;;;;;;;;;;;;;;;4.26;95.99;101048.56;5031767;28;1886;-79
2023/04/25 02:04:37;;;;;;;;;;;;;;;4.25;95.84;101062.31;5038812;28;1093;-79
2023/04/25 02:07:03;;;;;;;;;;;;;;;4.24;96.09;101054.66;5040919;28;1126;-78
2023/04/25 02:09:28;;;;;;;;;;;;;;;4.23;95.87;101064.09;5030097;28;1233;-79
2023/04/25 02:11:53;;;;;;;;;;;;;;;4.22;96.01;101069.31;5039765;28;1317;-79
2023/04/25 02:14:18;;;;;;;;;;;;;;;4.19;96.11;101067.75;5031072;28;1331;-79
2023/04/25 02:16:43;;;;;;;;;;;;;;;4.17;95.92;101069.56;5036011;28;1185;-79
2023/04/25 02:19:09;;;;;;;;;;;;;;;4.16;95.96;101062.75;5029891;28;1105;-79
2023/04/25 02:21:35;;;;;;;;;;;;;;;4.16;95.86;101060.19;5022099;28;1938;-79
2023/04/25 02:24:00;;;;;;;;;;;;;;;4.14;95.85;101074.03;5041628;28;1334;-78
2023/04/25 02:26:26;;;;;;;;;;;;;;;4.10;95.86;101070.78;5026115;28;1254;-79
2023/04/25 02:28:51;;;;;;;;;;;;;;;4.07;95.72;101078.66;5031302;28;1607;-79
2023/04/25 02:31:17;;;;;;;;;;;;;;;4.05;95.97;101072.75;5027620;28;1263;-79
2023/04/25 02:33:42;;;;;;;;;;;;;;;4.04;95.62;101080.53;5037761;28;1130;-79
2023/04/25 02:36:07;;;;;;;;;;;;;;;4.02;95.72;101080.63;5028475;28;1295;-78
2023/04/25 02:38:33;;;;;;;;;;;;;;;4.00;95.89;101077.28;5037702;28;1412;-78
2023/04/25 02:40:58;;;;;;;;;;;;;;;4.00;96.04;101083.25;5026230;28;1906;-79
2023/04/25 02:43:23;;;;;;;;;;;;;;;4.00;95.76;101082.41;5026444;28;1242;-79
2023/04/25 02:45:48;;;;;;;;;;;;;;;4.00;95.78;101083.25;5029799;28;1204;-78
2023/04/25 02:48:13;;;;;;;;;;;;;;;4.00;95.82;101082.41;5054515;28;1141;-79
2023/04/25 02:50:38;;;;;;;;;;;;;;;3.97;95.80;101080.00;5035693;28;942;-79
2023/04/25 02:53:04;;;;;;;;;;;;;;;3.94;95.61;101077.59;5021127;28;1227;-79
2023/04/25 02:55:29;;;;;;;;;;;;;;;3.93;95.61;101075.94;5023522;28;1929;-79
2023/04/25 02:57:55;;;;;;;;;;;;;;;3.91;95.89;101077.75;5028511;28;1739;-79
2023/04/25 03:00:21;;;;;;;;;;;;;;;3.90;95.63;101083.75;5027866;28;1906;-79
2023/04/25 03:02:46;;;;;;;;;;;;;;;3.88;95.81;101083.03;5043193;28;1447;-79
2023/04/25 03:05:11;;;;;;;;;;;;;;;3.85;95.73;101083.19;5017358;28;1235;-79
2023/04/25 03:07:36;;;;;;;;;;;;;;;3.83;95.62;101079.84;5018287;28;1291;-79
2023/04/25 03:10:02;;;;;;;;;;;;;;;3.82;95.72;101081.59;5029181;28;1226;-80
2023/04/25 03:12:27;;;;;;;;;;;;;;;3.79;95.70;101084.31;5024041;28;1395;-79
2023/04/25 03:14:52;;;;;;;;;;;;;;;3.78;95.67;101082.63;5023671;28;1184;-79
2023/04/25 03:17:17;;;;;;;;;;;;;;;3.76;95.87;101076.75;5033333;28;1343;-79
2023/04/25 03:19:43;;;;;;;;;;;;;;;3.77;95.93;101082.72;5048812;28;1221;-79
2023/04/25 03:22:08;;;;;;;;;;;;;;;3.78;96.04;101086.94;5037626;28;1959;-78
2023/04/25 03:24:33;;;;;;;;;;;;;;;3.77;95.74;101080.16;5025665;28;1261;-78
2023/04/25 03:26:58;;;;;;;;;;;;;;;3.76;95.88;101078.50;5036588;28;1181;-78
2023/04/25 03:29:26;;;;;;;;;;;;;;;3.75;95.73;101082.81;5021977;28;1522;-78
2023/04/25 03:31:51;;;;;;;;;;;;;;;3.77;95.84;101080.16;5023299;28;1267;-78
2023/04/25 03:34:16;;;;;;;;;;;;;;;3.77;95.98;101080.16;5045446;28;1423;-79
2023/04/25 03:36:41;;;;;;;;;;;;;;;3.79;96.03;101088.63;5046047;28;1208;-79
2023/04/25 03:39:07;;;;;;;;;;;;;;;3.76;96.02;101073.38;5044233;28;1316;-78
2023/04/25 03:41:32;;;;;;;;;;;;;;;3.75;95.74;101075.09;5023306;28;1957;-78
2023/04/25 03:43:57;;;;;;;;;;;;;;;3.75;95.83;101081.97;5037314;28;1387;-78
2023/04/25 03:46:22;;;;;;;;;;;;;;;3.73;96.03;101082.88;5050956;28;1217;-79
2023/04/25 03:48:47;;;;;;;;;;;;;;;3.74;96.01;101086.28;5023983;28;1298;-79
2023/04/25 03:51:13;;;;;;;;;;;;;;;3.72;96.10;101088.91;5038487;28;1154;-78
2023/04/25 03:53:38;;;;;;;;;;;;;;;3.72;95.92;101094.03;5041069;28;1415;-78
2023/04/25 03:56:03;;;;;;;;;;;;;;;3.71;96.08;101096.69;5033161;28;1167;-79
2023/04/25 03:58:28;;;;;;;;;;;;;;;3.71;95.91;101102.63;5025279;28;1424;-79
2023/04/25 04:00:54;;;;;;;;;;;;;;;3.70;95.93;101093.28;5017828;28;1902;-78
2023/04/25 04:03:20;;;;;;;;;;;;;;;3.69;96.09;101089.06;5038902;28;1155;-79
2023/04/25 04:05:46;;;;;;;;;;;;;;;3.68;96.15;101092.53;5033295;28;1366;-79
2023/04/25 04:08:11;;;;;;;;;;;;;;;3.69;95.92;101091.63;5042294;28;1430;-79
2023/04/25 04:10:36;;;;;;;;;;;;;;;3.72;95.91;101094.03;5024208;28;1547;-79
2023/04/25 04:13:01;;;;;;;;;;;;;;;3.71;96.10;101102.63;5021230;28;1643;-79
2023/04/25 04:15:27;;;;;;;;;;;;;;;3.70;96.02;101115.53;5038364;28;1391;-78
2023/04/25 04:17:52;;;;;;;;;;;;;;;3.66;96.07;101114.84;5024264;28;1215;-79
2023/04/25 04:20:17;;;;;;;;;;;;;;;3.65;96.02;101115.75;5040080;28;1023;-79
2023/04/25 04:22:42;;;;;;;;;;;;;;;3.66;96.02;101114.00;5019006;28;1922;-79
2023/04/25 04:25:08;;;;;;;;;;;;;;;3.66;96.07;101126.84;5021305;28;1203;-79
2023/04/25 04:27:34;;;;;;;;;;;;;;;3.68;96.36;101118.19;5016773;28;1288;-79
2023/04/25 04:30:00;;;;;;;;;;;;;;;3.66;96.09;101125.09;5035708;28;1074;-79
2023/04/25 04:32:25;;;;;;;;;;;;;;;3.67;96.37;101126.78;5026396;28;1431;-79
2023/04/25 04:34:50;;;;;;;;;;;;;;;3.70;96.07;101126.63;5023390;28;1284;-79
2023/04/25 04:37:16;;;;;;;;;;;;;;;3.69;96.00;101130.09;5044100;28;1256;-79
2023/04/25 04:39:41;;;;;;;;;;;;;;;3.70;96.25;101138.63;5016800;28;1173;-79
2023/04/25 04:42:06;;;;;;;;;;;;;;;3.73;96.07;101129.06;5039083;28;1978;-79
2023/04/25 04:44:35;;;;;;;;;;;;;;;3.72;96.13;101135.06;5039393;28;1206;-78
2023/04/25 04:47:00;;;;;;;;;;;;;;;3.73;95.96;101131.63;5029963;28;1097;-78
2023/04/25 04:49:26;;;;;;;;;;;;;;;3.69;96.11;101135.22;5036088;28;1464;-79
2023/04/25 04:51:52;;;;;;;;;;;;;;;3.73;96.30;101146.19;5023097;28;1426;-79
2023/04/25 04:54:17;;;;;;;;;;;;;;;3.76;96.29;101134.94;5033274;28;1337;-78
2023/04/25 04:56:42;;;;;;;;;;;;;;;3.79;96.34;101145.06;5037779;28;1353;-78
2023/04/25 04:59:07;;;;;;;;;;;;;;;3.82;96.11;101144.91;5020931;28;1219;-79
2023/04/25 05:01:35;;;;;;;;;;;;;;;3.85;95.57;101149.91;5039468;28;1890;-79
2023/04/25 05:04:00;;;;;;;;;;;;;;;3.88;96.21;101147.16;5021382;28;1392;-79
2023/04/25 05:06:29;;;;;;;;;;;;;;;3.88;96.04;101153.13;5041134;28;1455;-79
2023/04/25 05:08:54;;;;;;;;;;;;;;;3.91;96.34;101165.00;5022288;28;1344;-79
2023/04/25 05:11:20;;;;;;;;;;;;;;;3.94;95.98;101164.84;5016144;28;1243;-79
2023/04/25 05:13:46;;;;;;;;;;;;;;;3.93;95.84;101168.31;5019664;28;1478;-79
2023/04/25 05:16:11;;;;;;;;;;;;;;;3.94;95.57;101175.09;5027564;28;1236;-79
2023/04/25 05:18:37;;;;;;;;;;;;;;;3.92;94.93;101171.78;5019548;28;1690;-78
2023/04/25 05:21:02;;;;;;;;;;;;;;;3.94;95.23;101169.97;5033010;28;1942;-78
2023/04/25 05:23:28;;;;;;;;;;;;;;;3.97;94.48;101174.97;5020063;28;1291;-79
2023/04/25 05:25:53;;;;;;;;;;;;;;;3.97;94.31;101180.94;5041226;28;1117;-78
2023/04/25 05:28:18;;;;;;;;;;;;;;;3.99;94.39;101183.41;5043385;28;1227;-79
2023/04/25 05:30:43;;;;;;;;;;;;;;;4.02;94.08;101188.41;5038325;28;1150;-79
2023/04/25 05:33:08;;;;;;;;;;;;;;;4.04;94.55;101184.03;5038237;28;1256;-78
2023/04/25 05:35:34;;;;;;;;;;;;;;;4.13;94.55;101191.28;5026605;28;1211;-80
2023/04/25 05:37:59;;;;;;;;;;;;;;;4.08;93.59;101184.72;5025551;28;1209;-79
2023/04/25 05:40:25;;;;;;;;;;;;;;;4.17;94.04;101192.78;5015575;28;1962;-79
2023/04/25 05:42:50;;;;;;;;;;;;;;;4.17;94.03;101192.78;5031083;28;1208;-78
2023/04/25 05:45:17;;;;;;;;;;;;;;;4.23;93.80;101196.78;5042660;28;1125;-79
2023/04/25 05:47:42;;;;;;;;;;;;;;;4.23;93.48;101202.75;5029499;28;1269;-79
2023/04/25 05:50:08;;;;;;;;;;;;;;;4.28;93.20;101199.13;5046087;28;1220;-77
2023/04/25 05:52:33;;;;;;;;;;;;;;;4.29;92.46;101205.91;5022593;28;1696;-78
2023/04/25 05:54:58;;;;;;;;;;;;;;;4.32;92.57;101210.91;5037236;28;1431;-78
2023/04/25 05:57:25;;;;;;;;;;;;;;;4.28;92.14;101214.53;5040484;28;1213;-77
2023/04/25 05:59:50;;;;;;;;;;;;;;;4.30;92.44;101212.69;5034755;28;1258;-78
2023/04/25 06:02:16;;;;;;;;;;;;;;;4.33;91.92;101217.72;5045146;28;1898;-77
2023/04/25 06:04:41;;;;;;;;;;;;;;;4.37;92.09;101225.19;5044394;28;1073;-78
2023/04/25 06:07:06;;;;;;;;;;;;;;;4.39;92.34;101232.81;5043808;28;1288;-79
2023/04/25 06:09:31;;;;;;;;;;;;;;;4.42;92.20;101224.97;5036015;28;1149;-79
2023/04/25 06:11:56;;;;;;;;;;;;;;;4.46;92.43;101229.03;5040638;28;1215;-79
2023/04/25 06:14:22;;;;;;;;;;;;;;;4.50;92.05;101231.38;5021496;28;1208;-78
2023/04/25 06:16:47;;;;;;;;;;;;;;;4.56;92.68;101240.50;5044448;28;1169;-78
2023/04/25 06:19:12;;;;;;;;;;;;;;;4.59;92.68;101240.38;5046207;28;1202;-78
2023/04/25 06:21:37;;;;;;;;;;;;;;;4.65;93.14;101232.34;5043983;28;1902;-78
2023/04/25 06:24:02;;;;;;;;;;;;;;;4.70;93.04;101232.97;5041041;28;1244;-78
2023/04/25 06:26:28;;;;;;;;;;;;;;;4.76;92.36;101226.69;5019907;28;1238;-78
2023/04/25 06:28:53;;;;;;;;;;;;;;;4.76;92.42;101237.78;5026197;28;1463;-78
2023/04/25 06:31:18;;;;;;;;;;;;;;;4.77;91.04;101238.63;5042284;28;1226;-78
2023/04/25 06:33:43;;;;;;;;;;;;;;;4.76;90.64;101240.34;5028712;28;1220;-79
2023/04/25 06:36:08;;;;;;;;;;;;;;;4.82;90.65;101231.50;5040754;28;1151;-78
2023/04/25 06:38:35;;;;;;;;;;;;;;;4.85;91.11;101240.78;5014619;28;1452;-78
2023/04/25 06:41:00;;;;;;;;;;;;;;;4.97;91.11;101245.28;5042516;28;1967;-78
2023/04/25 06:43:25;;;;;;;;;;;;;;;5.00;90.52;101247.72;5039759;28;1157;-78
2023/04/25 06:45:50;;;;;;;;;;;;;;;5.02;90.98;101253.59;5025589;28;1547;-78
2023/04/25 06:48:16;;;;;;;;;;;;;;;5.08;91.08;101258.41;5034977;28;1113;-79
2023/04/25 06:50:41;;;;;;;;;;;;;;;5.17;90.08;101260.53;5043184;28;1125;-78
2023/04/25 06:53:08;;;;;;;;;;;;;;;5.27;90.24;101253.97;5035609;28;1160;-79
2023/04/25 06:55:34;;;;;;;;;;;;;;;5.29;89.40;101262.47;5020196;28;1272;-78
2023/04/25 06:57:59;;;;;;;;;;;;;;;5.40;89.42;101263.66;5040565;28;1198;-78
2023/04/25 07:00:25;;;;;;;;;;;;;;;5.52;89.40;101273.28;5033652;28;1391;-78
2023/04/25 07:02:50;;;;;;;;;;;;;;;5.50;85.17;101270.75;5034732;28;1953;-78
2023/04/25 07:05:15;;;;;;;;;;;;;;;5.52;86.97;101278.41;5044003;28;1401;-78
2023/04/25 07:07:40;;;;;;;;;;;;;;;5.54;86.13;101277.41;5035642;28;1138;-79
2023/04/25 07:10:06;;;;;;;;;;;;;;;5.63;86.82;101281.25;5025628;28;1254;-79
2023/04/25 07:12:31;;;;;;;;;;;;;;;5.74;85.70;101284.09;5042114;28;1142;-80
2023/04/25 07:14:56;;;;;;;;;;;;;;;5.83;82.83;101288.72;5021099;28;1445;-80
2023/04/25 07:17:21;;;;;;;;;;;;;;;5.91;83.65;101295.19;5041057;28;1173;-79
2023/04/25 07:19:46;;;;;;;;;;;;;;;5.93;83.45;101293.41;5033372;28;1249;-79
2023/04/25 07:22:12;;;;;;;;;;;;;;;6.00;84.57;101289.56;5038078;28;1890;-79
2023/04/25 07:24:37;;;;;;;;;;;;;;;6.01;81.68;101296.38;5040106;28;1419;-79
2023/04/25 07:27:03;;;;;;;;;;;;;;;6.13;81.71;101301.69;5022127;28;1261;-79
2023/04/25 07:29:28;;;;;;;;;;;;;;;6.02;80.70;101308.34;5023816;28;1538;-80
2023/04/25 07:31:53;;;;;;;;;;;;;;;6.04;82.40;101301.38;5016297;28;1168;-79
2023/04/25 07:34:19;;;;;;;;;;;;;;;6.04;82.39;101311.69;5041378;28;1243;-79
2023/04/25 07:36:44;;;;;;;;;;;;;;;6.02;81.82;101313.47;5043783;28;1118;-80
2023/04/25 07:39:10;;;;;;;;;;;;;;;6.09;81.94;101305.34;5034314;28;1458;-80
2023/04/25 07:41:35;;;;;;;;;;;;;;;6.07;78.49;101312.31;5040927;28;1906;-80
2023/04/25 07:44:01;;;;;;;;;;;;;;;6.21;79.38;101319.31;5038676;28;1276;-79
2023/04/25 07:46:26;;;;;;;;;;;;;;;6.24;80.28;101313.97;5038434;28;1098;-79
2023/04/25 07:48:51;;;;;;;;;;;;;;;6.37;81.57;101324.44;5022223;28;1248;-79
2023/04/25 07:51:16;;;;;;;;;;;;;;;6.52;77.26;101335.63;5024327;28;1256;-79
2023/04/25 07:53:42;;;;;;;;;;;;;;;6.60;77.46;101336.84;5035431;28;1460;-79
2023/04/25 07:56:07;;;;;;;;;;;;;;;6.70;76.43;101337.13;5035069;28;1432;-79
2023/04/25 07:58:32;;;;;;;;;;;;;;;6.76;77.57;101336.78;5019637;28;1347;-81
2023/04/25 08:00:58;;;;;;;;;;;;;;;6.79;77.57;101331.47;5037896;28;1886;-80
2023/04/25 08:03:23;;;;;;;;;;;;;;;6.80;75.82;101340.84;5039666;28;1114;-80
2023/04/25 08:05:48;;;;;;;;;;;;;;;6.82;75.91;101340.75;5024857;28;1238;-81
2023/04/25 08:08:13;;;;;;;;;;;;;;;6.71;75.08;101348.28;5037086;28;1403;-81
2023/04/25 08:10:38;;;;;;;;;;;;;;;6.80;76.02;101338.28;5024868;28;1236;-81
2023/04/25 08:13:04;;;;;;;;;;;;;;;6.86;75.77;101334.50;5035037;28;1013;-81
2023/04/25 08:15:29;;;;;;;;;;;;;;;6.87;75.02;101339.56;5038028;28;1250;-82
2023/04/25 08:17:54;;;;;;;;;;;;;;;6.79;72.63;101354.66;5014354;28;1308;-81
2023/04/25 08:20:20;;;;;;;;;;;;;;;6.76;74.04;101351.44;5035175;28;1272;-81
2023/04/25 08:22:45;;;;;;;;;;;;;;;6.77;71.84;101353.94;5042789;28;1914;-81
2023/04/25 08:25:10;;;;;;;;;;;;;;;6.83;70.38;101361.31;5033640;28;1186;-81
2023/04/25 08:27:35;;;;;;;;;;;;;;;6.90;71.35;101370.34;5035193;28;1339;-81
2023/04/25 08:30:02;;;;;;;;;;;;;;;7.00;71.81;101364.69;5039468;28;2036;-80
2023/04/25 08:32:28;;;;;;;;;;;;;;;7.03;72.70;101367.06;5018254;28;2654;-81
2023/04/25 08:34:55;;;;;;;;;;;;;;;7.05;70.45;101367.78;5033807;28;2643;-80
2023/04/25 08:37:20;;;;;;;;;;;;;;;6.96;70.65;101368.34;5021523;28;2064;-80
2023/04/25 08:39:46;;;;;;;;;;;;;;;6.90;71.62;101370.34;5035910;28;1502;-81
2023/04/25 08:42:12;;;;;;;;;;;;;;;6.89;71.91;101378.19;5024905;28;1987;-81
2023/04/25 08:44:37;;;;;;;;;;;;;;;6.77;71.76;101379.72;5041352;28;1519;-80
2023/04/25 08:47:03;;;;;;;;;;;;;;;6.65;74.13;101380.38;5039136;28;1244;-81
2023/04/25 08:49:29;;;;;;;;;;;;;;;6.64;74.39;101383.88;5029767;28;1039;-80
2023/04/25 08:51:56;;;;;;;;;;;;;;;6.56;76.86;101392.06;5025312;28;1247;-81
2023/04/25 08:54:25;;;;;;;;;;;;;;;6.56;78.56;101402.38;5012721;28;2374;-79
2023/04/25 08:56:51;;;;;;;;;;;;;;;6.63;77.71;101397.69;5018278;28;2333;-80
2023/04/25 08:59:17;;;;;;;;;;;;;;;6.59;79.99;101406.50;5035688;28;2008;-80
2023/04/25 09:01:42;;;;;;;;;;;;;;;6.61;79.00;101412.44;5018509;28;1921;-81
2023/04/25 09:04:07;;;;;;;;;;;;;;;6.63;78.67;101405.44;5036460;28;1816;-81
2023/04/25 09:06:34;;;;;;;;;;;;;;;6.64;78.83;101419.97;5020021;28;1506;-80
2023/04/25 09:09:06;;;;;;;;;;;;;;;6.70;77.80;101423.94;5035930;28;1308;-81
2023/04/25 09:11:32;;;;;;;;;;;;;;;6.84;78.29;101421.44;5041199;28;1198;-80
2023/04/25 09:14:16;;;;;;;;;;;;;;;6.83;76.95;101423.19;5027384;28;1440;-81
2023/04/25 09:16:56;;;;;;;;;;;;;;;6.91;74.57;101439.06;5037249;28;2831;-80
2023/04/25 09:19:31;;;;;;;;;;;;;;;6.96;75.86;101435.41;5034118;28;2059;-82
2023/04/25 09:21:58;;;;;;;;;;;;;;;7.05;76.42;101440.00;5034933;28;1910;-80
2023/04/25 09:24:36;;;;;;;;;;;;;;;7.20;76.45;101449.47;5033868;28;2012;-81
2023/04/25 09:27:05;;;;;;;;;;;;;;;7.21;74.81;101443.38;5034021;28;1925;-81
2023/04/25 09:29:31;;;;;;;;;;;;;;;7.18;75.10;101446.16;5037024;28;2510;-82
2023/04/25 09:32:16;;;;;;;;;;;;;;;7.24;75.79;101455.28;5034526;28;2190;-80
2023/04/25 09:34:43;;;;;;;;;;;;;;;7.26;75.28;101454.28;5026359;28;1839;-81
2023/04/25 09:37:09;;;;;;;;;;;;;;;7.30;74.38;101455.75;5028472;28;1408;-81
2023/04/25 09:39:34;;;;;;;;;;;;;;;7.47;75.53;101456.53;5020575;28;1530;-81
2023/04/25 09:42:00;;;;;;;;;;;;;;;7.67;73.86;101443.28;5041536;28;1902;-81
2023/04/25 09:44:25;;;;;;;;;;;;;;;7.80;73.53;101444.22;5044316;28;1260;-81
2023/04/25 09:46:53;;;;;;;;;;;;;;;7.98;73.78;101450.03;5048354;28;1396;-81
2023/04/25 09:49:20;;;;;;;;;;;;;;;8.06;73.48;101460.72;5042537;28;1079;-81
2023/04/25 09:51:58;;;;;;;;;;;;;;;8.00;68.88;101463.66;5026190;28;1280;-82
2023/04/25 09:54:26;;;;;;;;;;;;;;;7.84;66.77;101461.16;5046812;28;1422;-81
2023/04/25 09:56:52;;;;;;;;;;;;;;;7.58;65.86;101474.81;5046783;28;1256;-81
2023/04/25 09:59:22;;;;;;;;;;;;;;;7.45;67.51;101465.22;5045327;28;1430;-81
2023/04/25 10:01:49;;;;;;;;;;;;;;;7.33;65.39;101476.22;5022754;28;1961;-80
2023/04/25 10:04:18;;;;;;;;;;;;;;;7.30;68.36;101470.41;5022720;28;1198;-80
2023/04/25 10:06:44;;;;;;;;;;;;;;;7.51;68.79;101473.50;5034860;28;1105;-81
2023/04/25 10:09:11;;;;;;;;;;;;;;;7.75;66.99;101471.25;5036379;28;1283;-81
2023/04/25 10:11:37;;;;;;;;;;;;;;;7.92;64.46;101469.31;5031658;28;1181;-81
2023/04/25 10:14:02;;;;;;;;;;;;;;;8.33;60.49;101472.88;5030291;28;1402;-81
2023/04/25 10:16:28;;;;;;;;;;;;;;;8.07;56.86;101466.72;5035879;28;1131;-81
2023/04/25 10:18:53;;;;;;;;;;;;;;;8.09;57.86;101467.47;5021625;28;1250;-80
2023/04/25 10:21:20;;;;;;;;;;;;;;;8.23;58.48;101467.44;5024724;28;1917;-80
2023/04/25 10:23:46;;;;;;;;;;;;;;;8.31;58.79;101475.53;5025513;28;1406;-80
2023/04/25 10:26:12;;;;;;;;;;;;;;;8.36;58.74;101468.34;5035746;28;1140;-80
2023/04/25 10:29:10;;;;;;;;;;;;;;;8.34;59.75;101470.19;5030357;28;1097;-81
2023/04/25 10:31:44;;;;;;;;;;;;;;;8.23;58.12;101475.19;4995498;28;1316;-80
2023/04/25 10:34:09;;;;;;;;;;;;;;;8.20;60.43;101472.78;5045126;28;993;-80
2023/04/25 10:36:34;;;;;;;;;;;;;;;8.21;62.17;101474.47;5027440;28;1173;-79
2023/04/25 10:39:06;;;;;;;;;;;;;;;8.35;60.84;101483.94;5027733;28;1200;-80
2023/04/25 10:41:31;;;;;;;;;;;;;;;8.30;61.47;101479.03;5039835;28;1969;-79
2023/04/25 10:44:01;;;;;;;;;;;;;;;8.48;61.59;101475.34;5020900;28;1283;-80
2023/04/25 10:46:27;;;;;;;;;;;;;;;8.36;62.78;101483.88;5027050;28;1343;-80
2023/04/25 10:48:53;;;;;;;;;;;;;;;8.29;62.64;101485.16;5027445;28;1440;-80
2023/04/25 10:51:23;;;;;;;;;;;;;;;8.32;63.22;101490.13;5033911;28;1177;-79
2023/04/25 10:54:01;;;;;;;;;;;;;;;8.28;64.62;101509.34;5025262;28;1432;-79
2023/04/25 10:56:26;;;;;;;;;;;;;;;8.17;65.22;101504.81;5025811;28;1237;-79
2023/04/25 10:58:52;;;;;;;;;;;;;;;8.06;66.11;101502.03;5020717;28;1302;-80
2023/04/25 11:01:21;;;;;;;;;;;;;;;8.01;66.79;101509.25;5044140;28;1894;-79
2023/04/25 11:03:50;;;;;;;;;;;;;;;7.91;65.02;101519.31;5020176;28;1232;-79
2023/04/25 11:06:20;;;;;;;;;;;;;;;7.82;66.39;101514.69;5040356;28;1493;-80
2023/04/25 11:08:54;;;;;;;;;;;;;;;7.74;67.63;101514.28;5020892;28;1154;-80
2023/04/25 11:11:20;;;;;;;;;;;;;;;7.72;67.10;101516.13;5036269;28;1177;-79
2023/04/25 11:13:49;;;;;;;;;;;;;;;7.72;67.17;101513.53;5021123;28;944;-79
2023/04/25 11:16:15;;;;;;;;;;;;;;;7.52;66.82;101513.88;5023370;28;1447;-79
2023/04/25 11:18:43;;;;;;;;;;;;;;;7.44;68.27;101514.31;5026804;28;1393;-79
2023/04/25 11:21:09;;;;;;;;;;;;;;;7.54;69.10;101512.03;5018679;28;1965;-79
2023/04/25 11:23:34;;;;;;;;;;;;;;;7.64;70.26;101515.75;5036312;28;1017;-80
2023/04/25 11:26:01;;;;;;;;;;;;;;;7.83;69.38;101508.59;5015870;28;1486;-79
2023/04/25 11:28:26;;;;;;;;;;;;;;;7.92;68.40;101510.63;5040804;28;1240;-80
2023/04/25 11:30:52;;;;;;;;;;;;;;;8.09;68.27;101506.22;5027069;28;1487;-79
2023/04/25 11:33:17;;;;;;;;;;;;;;;8.24;68.06;101506.09;5044297;28;1089;-79
2023/04/25 11:35:42;;;;;;;;;;;;;;;8.35;66.02;101518.38;5039810;28;1475;-79
2023/04/25 11:38:07;;;;;;;;;;;;;;;8.39;63.77;101519.88;5037906;28;1130;-79
2023/04/25 11:40:33;;;;;;;;;;;;;;;8.36;61.59;101519.22;5032519;28;1171;-80
2023/04/25 11:43:00;;;;;;;;;;;;;;;8.49;64.61;101520.16;5032925;28;2396;-80
2023/04/25 11:45:26;;;;;;;;;;;;;;;8.65;63.28;101526.00;5034334;28;2533;-79
2023/04/25 11:47:51;;;;;;;;;;;;;;;8.47;62.34;101527.97;5028993;28;2169;-79
2023/04/25 11:50:16;;;;;;;;;;;;;;;8.65;62.45;101520.00;5034015;28;2124;-79
2023/04/25 11:52:41;;;;;;;;;;;;;;;8.86;64.55;101529.03;5041759;28;1385;-79
2023/04/25 11:55:26;;;;;;;;;;;;;;;9.02;61.29;101523.72;5020370;28;1301;-79
2023/04/25 11:57:51;;;;;;;;;;;;;;;9.03;60.68;101520.19;5035550;28;1220;-79
2023/04/25 12:00:17;;;;;;;;;;;;;;;9.10;60.37;101523.22;5021362;28;1442;-79
2023/04/25 12:02:43;;;;;;;;;;;;;;;9.20;60.23;101526.88;5031710;28;1914;-80
2023/04/25 12:05:09;;;;;;;;;;;;;;;9.20;59.91;101522.53;5035120;28;1332;-79
2023/04/25 12:07:35;;;;;;;;;;;;;;;9.27;59.86;101522.94;5037714;28;2261;-79
2023/04/25 12:10:04;;;;;;;;;;;;;;;9.46;59.46;101527.75;5031431;28;2431;-79
2023/04/25 12:12:33;;;;;;;;;;;;;;;9.46;59.15;101523.44;5018977;28;2140;-79
2023/04/25 12:15:08;;;;;;;;;;;;;;;9.47;60.10;101525.09;5020132;28;1873;-79
2023/04/25 12:17:33;;;;;;;;;;;;;;;9.52;57.25;101524.78;5033401;28;1962;-79
2023/04/25 12:19:58;;;;;;;;;;;;;;;9.62;57.07;101517.22;5017581;28;2093;-79
2023/04/25 12:22:25;;;;;;;;;;;;;;;9.48;55.38;101537.09;5037143;28;1973;-79
2023/04/25 12:24:51;;;;;;;;;;;;;;;9.15;57.83;101545.28;5035495;28;2355;-79
2023/04/25 12:27:18;;;;;;;;;;;;;;;8.73;59.38;101548.84;5033699;28;1995;-79
2023/04/25 12:29:51;;;;;;;;;;;;;;;8.39;58.75;101550.06;5014691;28;2068;-78
2023/04/25 12:32:16;;;;;;;;;;;;;;;8.12;59.45;101557.69;5035088;28;2327;-79
2023/04/25 12:34:41;;;;;;;;;;;;;;;8.00;59.60;101554.09;5030232;28;2526;-79
2023/04/25 12:37:08;;;;;;;;;;;;;;;8.03;59.46;101563.38;5035147;28;2629;-79
2023/04/25 12:39:33;;;;;;;;;;;;;;;8.11;61.66;101564.63;5030672;28;1929;-78
2023/04/25 12:41:59;;;;;;;;;;;;;;;8.08;64.75;101558.78;5033123;28;2613;-78
2023/04/25 12:44:24;;;;;;;;;;;;;;;8.09;63.40;101566.47;5034656;28;1902;-78
2023/04/25 12:46:50;;;;;;;;;;;;;;;8.20;63.64;101570.97;5032930;28;2183;-79
2023/04/25 12:49:15;;;;;;;;;;;;;;;8.21;63.70;101563.16;5033317;28;1914;-80
2023/04/25 12:51:41;;;;;;;;;;;;;;;8.26;64.67;101575.81;5033468;28;1886;-79